Time;durP1;ratioP1;P1;durP2;ratioP2;P2;SDS_P1;SDS_P2;PMS_P1;PMS_P2;Temp;Humidity;BMP_temperature;BMP_pressure;BME280_temperature;BME280_humidity;BME280_pressure;Samples;Min_cycle;Max_cycle;Signal;HPM_P1;HPM_P2
2023/04/24 00:00:56;;;;;;;0.68;0.50;;;;;;;;;;5116552;28;20028;-83
2023/04/24 00:03:27;;;;;;;1.80;0.50;;;;;;;;;;5099785;28;20059;-83
2023/04/24 00:05:53;;;;;;;0.73;0.40;;;;;;;;;;5096355;28;20027;-83
2023/04/24 00:08:18;;;;;;;0.43;0.30;;;;;;;;;;5094947;28;20196;-83
2023/04/24 00:10:44;;;;;;;0.65;0.57;;;;;;;;;;5096177;28;20055;-82
2023/04/24 00:13:09;;;;;;;1.42;0.50;;;;;;;;;;5093696;28;20035;-83
2023/04/24 00:15:34;;;;;;;0.63;0.47;;;;;;;;;;5094301;28;20054;-83
2023/04/24 00:18:01;;;;;;;0.30;0.30;;;;;;;;;;5094864;28;20044;-83
2023/04/24 00:20:28;;;;;;;0.63;0.50;;;;;;;;;;5095157;28;20111;-83
2023/04/24 00:22:53;;;;;;;1.20;0.40;;;;;;;;;;5095396;28;20060;-83
2023/04/24 00:25:18;;;;;;;1.02;0.40;;;;;;;;;;5095060;28;20372;-83
2023/04/24 00:27:44;;;;;;;0.40;0.40;;;;;;;;;;5095217;28;20024;-83
2023/04/24 00:30:09;;;;;;;0.20;0.20;;;;;;;;;;5093520;28;20056;-83
2023/04/24 00:32:35;;;;;;;0.60;0.30;;;;;;;;;;5093791;28;20474;-82
2023/04/24 00:35:00;;;;;;;0.30;0.30;;;;;;;;;;5060068;28;20028;-83
2023/04/24 00:37:26;;;;;;;0.50;0.30;;;;;;;;;;5076439;28;20047;-83
2023/04/24 00:39:51;;;;;;;0.32;0.32;;;;;;;;;;5093474;28;20033;-83
2023/04/24 00:42:16;;;;;;;0.43;0.43;;;;;;;;;;5093306;28;20024;-82
2023/04/24 00:44:42;;;;;;;1.17;0.63;;;;;;;;;;5095054;28;20471;-82
2023/04/24 00:47:07;;;;;;;0.40;0.38;;;;;;;;;;5094110;28;20032;-83
2023/04/24 00:49:33;;;;;;;0.40;0.40;;;;;;;;;;5094666;28;20042;-83
2023/04/24 00:51:59;;;;;;;0.45;0.30;;;;;;;;;;5093330;28;20038;-83
2023/04/24 00:54:24;;;;;;;0.40;0.40;;;;;;;;;;5095290;28;20036;-83
2023/04/24 00:56:51;;;;;;;0.63;0.40;;;;;;;;;;5094611;28;20402;-83
2023/04/24 00:59:17;;;;;;;1.35;0.52;;;;;;;;;;5096440;28;20028;-82
2023/04/24 01:01:43;;;;;;;0.50;0.40;;;;;;;;;;5101221;28;20471;-83
2023/04/24 01:04:09;;;;;;;0.63;0.43;;;;;;;;;;5105403;28;20020;-83
2023/04/24 01:06:37;;;;;;;1.02;0.52;;;;;;;;;;5111824;28;20072;-83
2023/04/24 01:09:03;;;;;;;0.57;0.40;;;;;;;;;;5107071;28;20039;-83
2023/04/24 01:11:28;;;;;;;0.70;0.65;;;;;;;;;;5087029;28;20032;-82
2023/04/24 01:13:54;;;;;;;0.32;0.32;;;;;;;;;;5064837;28;20035;-83
2023/04/24 01:16:22;;;;;;;1.45;0.70;;;;;;;;;;5095655;28;20028;-83
2023/04/24 01:18:48;;;;;;;0.60;0.40;;;;;;;;;;5093374;28;20454;-83
2023/04/24 01:21:16;;;;;;;0.60;0.50;;;;;;;;;;5092737;28;20028;-82
2023/04/24 01:23:43;;;;;;;0.65;0.50;;;;;;;;;;5092782;28;20480;-83
2023/04/24 01:26:08;;;;;;;0.40;0.40;;;;;;;;;;5092827;28;20020;-83
2023/04/24 01:28:34;;;;;;;0.55;0.55;;;;;;;;;;5094176;28;20469;-83
2023/04/24 01:30:59;;;;;;;0.70;0.60;;;;;;;;;;5092655;28;20031;-83
2023/04/24 01:33:25;;;;;;;1.45;0.75;;;;;;;;;;5094308;28;20023;-83
2023/04/24 01:35:51;;;;;;;0.85;0.50;;;;;;;;;;5094027;28;20451;-82
2023/04/24 01:38:16;;;;;;;0.40;0.40;;;;;;;;;;5093770;28;20077;-82
2023/04/24 01:40:41;;;;;;;0.60;0.52;;;;;;;;;;5075700;28;20028;-82
2023/04/24 01:43:07;;;;;;;0.50;0.50;;;;;;;;;;5092283;28;20418;-82
2023/04/24 01:45:32;;;;;;;0.55;0.47;;;;;;;;;;5092520;28;20107;-82
2023/04/24 01:47:58;;;;;;;0.90;0.50;;;;;;;;;;5092187;28;20030;-82
2023/04/24 01:50:24;;;;;;;0.75;0.70;;;;;;;;;;5093667;28;20047;-82
2023/04/24 01:52:49;;;;;;;1.63;0.45;;;;;;;;;;5094740;28;20447;-82
2023/04/24 01:55:15;;;;;;;0.80;0.60;;;;;;;;;;5093450;28;20055;-82
2023/04/24 01:57:40;;;;;;;1.17;0.55;;;;;;;;;;5093593;28;20028;-82
2023/04/24 02:00:07;;;;;;;4.68;0.68;;;;;;;;;;5093589;28;20028;-83
2023/04/24 02:02:32;;;;;;;0.50;0.50;;;;;;;;;;5093585;28;20024;-83
2023/04/24 02:04:58;;;;;;;0.47;0.47;;;;;;;;;;5078098;28;20034;-83
2023/04/24 02:07:23;;;;;;;0.40;0.40;;;;;;;;;;5096318;28;20028;-83
2023/04/24 02:09:49;;;;;;;0.60;0.60;;;;;;;;;;5098171;28;20106;-82
2023/04/24 02:12:17;;;;;;;0.88;0.88;;;;;;;;;;5096186;28;20055;-81
2023/04/24 02:14:43;;;;;;;0.70;0.70;;;;;;;;;;5099028;28;20453;-81
2023/04/24 02:17:09;;;;;;;0.70;0.70;;;;;;;;;;5079295;28;20072;-81
2023/04/24 02:19:34;;;;;;;0.60;0.60;;;;;;;;;;5079413;28;20502;-82
2023/04/24 02:22:00;;;;;;;0.70;0.70;;;;;;;;;;5096993;28;20028;-81
2023/04/24 02:24:25;;;;;;;2.25;0.60;;;;;;;;;;5097733;28;20028;-81
2023/04/24 02:26:50;;;;;;;0.75;0.75;;;;;;;;;;5097133;28;20020;-82
2023/04/24 02:29:16;;;;;;;0.60;0.60;;;;;;;;;;5078965;28;20074;-82
2023/04/24 02:31:41;;;;;;;0.68;0.68;;;;;;;;;;5097376;28;20032;-83
2023/04/24 02:34:07;;;;;;;0.60;0.60;;;;;;;;;;5096049;28;20032;-82
2023/04/24 02:36:32;;;;;;;0.65;0.65;;;;;;;;;;5097306;28;20024;-82
2023/04/24 02:38:57;;;;;;;1.38;0.70;;;;;;;;;;5078657;28;20047;-82
2023/04/24 02:41:23;;;;;;;0.70;0.70;;;;;;;;;;5095630;28;20039;-82
2023/04/24 02:43:48;;;;;;;0.75;0.65;;;;;;;;;;5096936;28;20036;-82
2023/04/24 02:46:13;;;;;;;0.70;0.70;;;;;;;;;;5095867;28;20016;-82
2023/04/24 02:48:39;;;;;;;0.98;0.93;;;;;;;;;;5095433;28;20032;-82
2023/04/24 02:51:04;;;;;;;0.73;0.70;;;;;;;;;;5095209;28;20119;-82
2023/04/24 02:53:30;;;;;;;0.70;0.70;;;;;;;;;;5096822;28;20035;-81
2023/04/24 02:55:56;;;;;;;0.90;0.90;;;;;;;;;;5095219;28;20478;-81
2023/04/24 02:58:22;;;;;;;0.50;0.50;;;;;;;;;;5095785;28;20459;-82
2023/04/24 03:00:47;;;;;;;0.70;0.70;;;;;;;;;;5095642;28;20024;-82
2023/04/24 03:03:13;;;;;;;0.57;0.57;;;;;;;;;;5095657;28;20040;-82
2023/04/24 03:05:38;;;;;;;0.65;0.65;;;;;;;;;;5095419;28;20016;-81
2023/04/24 03:08:04;;;;;;;0.60;0.60;;;;;;;;;;5096366;28;20028;-82
2023/04/24 03:10:29;;;;;;;0.50;0.50;;;;;;;;;;5096514;28;20107;-82
2023/04/24 03:12:55;;;;;;;1.05;0.77;;;;;;;;;;5095009;28;20028;-81
2023/04/24 03:15:20;;;;;;;0.70;0.70;;;;;;;;;;5077410;28;20482;-81
2023/04/24 03:17:46;;;;;;;1.02;0.70;;;;;;;;;;5094824;28;20044;-81
2023/04/24 03:20:11;;;;;;;0.75;0.50;;;;;;;;;;5061273;28;20126;-81
2023/04/24 03:22:37;;;;;;;1.85;0.60;;;;;;;;;;5094808;28;20139;-81
2023/04/24 03:25:03;;;;;;;0.60;0.60;;;;;;;;;;5094790;28;20035;-81
2023/04/24 03:27:28;;;;;;;0.82;0.75;;;;;;;;;;5094857;28;20030;-83
2023/04/24 03:29:55;;;;;;;1.00;0.75;;;;;;;;;;5094551;28;20024;-82
2023/04/24 03:32:22;;;;;;;0.77;0.70;;;;;;;;;;5078098;28;20054;-81
2023/04/24 03:34:47;;;;;;;1.25;0.68;;;;;;;;;;5095777;28;20024;-82
2023/04/24 03:37:13;;;;;;;0.90;0.82;;;;;;;;;;5095816;28;20429;-82
2023/04/24 03:39:38;;;;;;;1.13;0.90;;;;;;;;;;5094854;28;20529;-82
2023/04/24 03:42:03;;;;;;;1.00;0.80;;;;;;;;;;5094544;28;20363;-83
2023/04/24 03:44:29;;;;;;;0.70;0.70;;;;;;;;;;5094413;28;20035;-83
2023/04/24 03:46:54;;;;;;;0.88;0.70;;;;;;;;;;5095512;28;20036;-82
2023/04/24 03:49:20;;;;;;;0.60;0.60;;;;;;;;;;5094598;28;20035;-82
2023/04/24 03:51:45;;;;;;;1.80;0.70;;;;;;;;;;5095841;28;20103;-83
2023/04/24 03:54:11;;;;;;;0.95;0.80;;;;;;;;;;5077619;28;20367;-82
2023/04/24 03:56:36;;;;;;;1.10;0.75;;;;;;;;;;5094578;28;20020;-82
2023/04/24 03:59:02;;;;;;;5.18;0.60;;;;;;;;;;5095949;28;20038;-83
2023/04/24 04:01:28;;;;;;;0.70;0.70;;;;;;;;;;5094247;28;20024;-83
2023/04/24 04:03:53;;;;;;;0.50;0.50;;;;;;;;;;5095145;28;20391;-81
2023/04/24 04:06:19;;;;;;;1.88;0.90;;;;;;;;;;5094409;28;20031;-80
2023/04/24 04:08:44;;;;;;;1.65;0.90;;;;;;;;;;5094399;28;20047;-81
2023/04/24 04:11:10;;;;;;;2.97;0.88;;;;;;;;;;5094741;28;20081;-81
2023/04/24 04:13:35;;;;;;;3.40;1.13;;;;;;;;;;5094297;28;20081;-82
2023/04/24 04:16:00;;;;;;;1.75;1.00;;;;;;;;;;5096527;28;20032;-81
2023/04/24 04:18:26;;;;;;;6.35;1.20;;;;;;;;;;5095301;28;20064;-81
2023/04/24 04:20:51;;;;;;;7.47;1.20;;;;;;;;;;5077173;28;20433;-81
2023/04/24 04:23:17;;;;;;;4.05;1.23;;;;;;;;;;5094800;28;20062;-82
2023/04/24 04:25:42;;;;;;;1.88;1.20;;;;;;;;;;5094925;28;20024;-79
2023/04/24 04:28:07;;;;;;;1.23;0.95;;;;;;;;;;5095476;28;20062;-79
2023/04/24 04:30:33;;;;;;;1.77;1.10;;;;;;;;;;5095729;28;20395;-81
2023/04/24 04:32:59;;;;;;;2.08;1.05;;;;;;;;;;5095590;28;20028;-84
2023/04/24 04:35:24;;;;;;;2.72;1.30;;;;;;;;;;5094229;28;20382;-82
2023/04/24 04:37:51;;;;;;;5.28;1.15;;;;;;;;;;5094732;28;20042;-81
2023/04/24 04:40:17;;;;;;;3.10;1.38;;;;;;;;;;5093272;28;20035;-82
2023/04/24 04:42:45;;;;;;;2.05;1.25;;;;;;;;;;5093309;28;20024;-81
2023/04/24 04:45:11;;;;;;;1.70;0.93;;;;;;;;;;5094210;28;20034;-82
2023/04/24 04:47:37;;;;;;;1.92;1.13;;;;;;;;;;5076064;28;20463;-79
2023/04/24 04:50:03;;;;;;;1.42;0.80;;;;;;;;;;5094636;28;20020;-82
2023/04/24 04:52:29;;;;;;;1.35;1.13;;;;;;;;;;5093475;28;20032;-82
2023/04/24 04:54:55;;;;;;;1.05;0.90;;;;;;;;;;5094623;28;20042;-80
2023/04/24 04:57:20;;;;;;;2.22;1.15;;;;;;;;;;5092975;28;20035;-79
2023/04/24 04:59:46;;;;;;;9.45;1.40;;;;;;;;;;5076399;28;20474;-81
2023/04/24 05:02:11;;;;;;;7.43;1.63;;;;;;;;;;5075688;28;20033;-81
2023/04/24 05:04:37;;;;;;;7.32;1.80;;;;;;;;;;5075931;28;20375;-81
2023/04/24 05:07:02;;;;;;;4.60;1.65;;;;;;;;;;5093001;28;20036;-80
2023/04/24 05:09:29;;;;;;;14.10;2.38;;;;;;;;;;5093829;28;20030;-80
2023/04/24 05:11:55;;;;;;;6.28;1.75;;;;;;;;;;5092801;28;20038;-80
2023/04/24 05:14:20;;;;;;;2.20;1.40;;;;;;;;;;5093753;28;20075;-82
2023/04/24 05:16:46;;;;;;;4.65;1.70;;;;;;;;;;5077635;28;20028;-82
2023/04/24 05:19:13;;;;;;;6.65;1.60;;;;;;;;;;5075923;28;20035;-81
2023/04/24 05:21:39;;;;;;;6.53;1.60;;;;;;;;;;5076136;28;20469;-81
2023/04/24 05:24:05;;;;;;;15.82;2.05;;;;;;;;;;5092533;28;20040;-81
2023/04/24 05:26:31;;;;;;;2.55;1.48;;;;;;;;;;5075954;28;20027;-82
2023/04/24 05:28:56;;;;;;;2.40;1.20;;;;;;;;;;5093008;28;20095;-81
2023/04/24 05:31:22;;;;;;;3.35;1.20;;;;;;;;;;5058823;28;20105;-81
2023/04/24 05:33:47;;;;;;;1.77;1.23;;;;;;;;;;5075875;28;20032;-81
2023/04/24 05:36:13;;;;;;;1.70;1.02;;;;;;;;;;5092660;28;20028;-80
2023/04/24 05:38:38;;;;;;;2.75;1.35;;;;;;;;;;5093718;28;20039;-80
2023/04/24 05:41:04;;;;;;;1.30;1.00;;;;;;;;;;5093093;28;20036;-80
2023/04/24 05:43:29;;;;;;;6.28;1.30;;;;;;;;;;5076034;28;20035;-80
2023/04/24 05:45:55;;;;;;;1.92;1.00;;;;;;;;;;5093810;28;20453;-81
2023/04/24 05:48:21;;;;;;;1.23;1.00;;;;;;;;;;5092470;28;20038;-81
2023/04/24 05:50:47;;;;;;;4.63;1.40;;;;;;;;;;5092293;28;20040;-80
2023/04/24 05:53:13;;;;;;;1.85;1.15;;;;;;;;;;5075528;28;20107;-82
2023/04/24 05:55:38;;;;;;;3.15;1.00;;;;;;;;;;5075378;28;20558;-83
2023/04/24 05:58:04;;;;;;;1.70;0.90;;;;;;;;;;5058985;28;20028;-82
2023/04/24 06:00:30;;;;;;;1.90;1.00;;;;;;;;;;5092478;28;20122;-81
2023/04/24 06:02:55;;;;;;;1.05;0.85;;;;;;;;;;5093736;28;20390;-81
2023/04/24 06:05:20;;;;;;;2.30;0.73;;;;;;;;;;5092434;28;20046;-81
2023/04/24 06:07:46;;;;;;;4.47;1.10;;;;;;;;;;5075321;28;20031;-81
2023/04/24 06:10:11;;;;;;;0.80;0.80;;;;;;;;;;5093572;28;20032;-80
2023/04/24 06:12:37;;;;;;;1.50;1.08;;;;;;;;;;5093794;28;20032;-81
2023/04/24 06:15:03;;;;;;;0.80;0.80;;;;;;;;;;5075489;28;20478;-82
2023/04/24 06:17:28;;;;;;;0.88;0.80;;;;;;;;;;5058349;28;20060;-82
2023/04/24 06:19:54;;;;;;;1.05;0.95;;;;;;;;;;5075433;28;20020;-81
2023/04/24 06:22:19;;;;;;;1.45;0.98;;;;;;;;;;5094021;28;20028;-83
2023/04/24 06:24:45;;;;;;;1.15;0.90;;;;;;;;;;5092505;28;20028;-80
2023/04/24 06:27:10;;;;;;;1.40;1.10;;;;;;;;;;5093341;28;20025;-81
2023/04/24 06:29:36;;;;;;;1.20;0.90;;;;;;;;;;5100561;28;20024;-81
2023/04/24 06:32:02;;;;;;;1.23;1.00;;;;;;;;;;5086645;28;20025;-82
2023/04/24 06:34:27;;;;;;;0.80;0.80;;;;;;;;;;5102769;28;20459;-81
2023/04/24 06:36:54;;;;;;;2.03;0.95;;;;;;;;;;5100688;28;20053;-82
2023/04/24 06:39:20;;;;;;;1.45;0.80;;;;;;;;;;5102677;28;20032;-83
2023/04/24 06:41:45;;;;;;;1.08;0.93;;;;;;;;;;5101018;28;20047;-81
2023/04/24 06:44:10;;;;;;;0.75;0.75;;;;;;;;;;5102056;28;20035;-81
2023/04/24 06:46:36;;;;;;;0.85;0.73;;;;;;;;;;5104853;28;20048;-81
2023/04/24 06:49:01;;;;;;;1.05;0.80;;;;;;;;;;5101298;28;20071;-84
2023/04/24 06:51:27;;;;;;;0.68;0.65;;;;;;;;;;5112472;28;20438;-82
2023/04/24 06:53:53;;;;;;;1.17;0.70;;;;;;;;;;5091290;28;20383;-83
2023/04/24 06:56:20;;;;;;;0.60;0.60;;;;;;;;;;5098112;28;20111;-82
2023/04/24 06:58:45;;;;;;;1.25;0.80;;;;;;;;;;5079070;28;20036;-82
2023/04/24 07:01:11;;;;;;;0.60;0.60;;;;;;;;;;5095974;28;20110;-85
2023/04/24 07:03:36;;;;;;;0.93;0.70;;;;;;;;;;5095829;28;20032;-82
2023/04/24 07:06:03;;;;;;;2.10;0.90;;;;;;;;;;5095221;28;20039;-83
2023/04/24 07:08:30;;;;;;;1.02;0.70;;;;;;;;;;5095408;28;20028;-81
2023/04/24 07:10:56;;;;;;;0.70;0.70;;;;;;;;;;5095868;28;20032;-81
2023/04/24 07:13:22;;;;;;;1.60;1.00;;;;;;;;;;5095283;28;20051;-82
2023/04/24 07:15:50;;;;;;;0.98;0.90;;;;;;;;;;5094923;28;20097;-82
2023/04/24 07:18:15;;;;;;;0.93;0.90;;;;;;;;;;5096171;28;20445;-83
2023/04/24 07:20:41;;;;;;;0.82;0.82;;;;;;;;;;5094982;28;20039;-83
2023/04/24 07:23:06;;;;;;;0.98;0.93;;;;;;;;;;5078441;28;20403;-82
2023/04/24 07:25:31;;;;;;;1.52;0.90;;;;;;;;;;5095078;28;20558;-82
2023/04/24 07:27:57;;;;;;;1.42;0.93;;;;;;;;;;5095003;28;20024;-82
2023/04/24 07:30:22;;;;;;;1.35;0.90;;;;;;;;;;5095048;28;20414;-81
2023/04/24 07:32:48;;;;;;;1.95;1.20;;;;;;;;;;5096867;28;20026;-81
2023/04/24 07:35:13;;;;;;;1.20;1.10;;;;;;;;;;5077731;28;20093;-82
2023/04/24 07:37:39;;;;;;;1.38;1.05;;;;;;;;;;5095945;28;20028;-82
2023/04/24 07:40:05;;;;;;;1.00;0.95;;;;;;;;;;5096145;28;20028;-80
2023/04/24 07:42:30;;;;;;;1.20;1.10;;;;;;;;;;5094357;28;20032;-81
2023/04/24 07:44:56;;;;;;;1.13;1.00;;;;;;;;;;5077649;28;20024;-82
2023/04/24 07:47:21;;;;;;;1.23;1.10;;;;;;;;;;5095909;28;20467;-82
2023/04/24 07:49:47;;;;;;;1.50;1.25;;;;;;;;;;5077662;28;20017;-81
2023/04/24 07:52:12;;;;;;;1.48;1.30;;;;;;;;;;5095505;28;20584;-82
2023/04/24 07:54:38;;;;;;;2.92;1.25;;;;;;;;;;5095422;28;20028;-82
2023/04/24 07:57:04;;;;;;;1.95;1.50;;;;;;;;;;5078847;28;20471;-82
2023/04/24 07:59:29;;;;;;;2.20;1.30;;;;;;;;;;5097717;28;20024;-82
2023/04/24 08:01:55;;;;;;;1.58;1.23;;;;;;;;;;5077900;28;20062;-82
2023/04/24 08:04:21;;;;;;;1.67;1.02;;;;;;;;;;5077561;28;20119;-82
2023/04/24 08:06:47;;;;;;;2.83;1.50;;;;;;;;;;5094722;28;20360;-82
2023/04/24 08:09:13;;;;;;;2.22;1.45;;;;;;;;;;5093870;28;20212;-81
2023/04/24 08:11:38;;;;;;;2.28;1.40;;;;;;;;;;5094863;28;20490;-83
2023/04/24 08:14:03;;;;;;;1.65;1.55;;;;;;;;;;5095027;28;20032;-82
2023/04/24 08:16:29;;;;;;;2.42;1.40;;;;;;;;;;5095277;28;20386;-83
2023/04/24 08:18:54;;;;;;;1.90;1.35;;;;;;;;;;5093560;28;20135;-83
2023/04/24 08:21:20;;;;;;;1.75;1.52;;;;;;;;;;5093381;28;20390;-82
2023/04/24 08:23:46;;;;;;;3.33;1.70;;;;;;;;;;5093704;28;20036;-83
2023/04/24 08:26:12;;;;;;;2.10;1.65;;;;;;;;;;5095151;28;20043;-83
2023/04/24 08:28:37;;;;;;;2.40;1.50;;;;;;;;;;5094733;28;20060;-83
2023/04/24 08:31:03;;;;;;;3.50;1.50;;;;;;;;;;5060173;28;20056;-82
2023/04/24 08:33:34;;;;;;;3.35;1.70;;;;;;;;;;5093729;28;20134;-82
2023/04/24 08:36:05;;;;;;;2.40;1.52;;;;;;;;;;5077515;28;20024;-82
2023/04/24 08:38:31;;;;;;;1.45;1.30;;;;;;;;;;5093825;28;20389;-83
2023/04/24 08:40:58;;;;;;;2.95;1.67;;;;;;;;;;5076641;28;20024;-83
2023/04/24 08:43:25;;;;;;;2.33;1.63;;;;;;;;;;5076159;28;20024;-82
2023/04/24 08:45:51;;;;;;;2.38;1.63;;;;;;;;;;5093846;28;20047;-83
2023/04/24 08:48:17;;;;;;;4.25;1.55;;;;;;;;;;5094855;28;20028;-83
2023/04/24 08:50:44;;;;;;;2.10;1.30;;;;;;;;;;5093710;28;20024;-83
2023/04/24 08:53:10;;;;;;;2.92;1.40;;;;;;;;;;5076592;28;20371;-82
2023/04/24 08:55:35;;;;;;;2.78;1.63;;;;;;;;;;5076492;28;20039;-82
2023/04/24 08:58:01;;;;;;;4.18;1.52;;;;;;;;;;5094764;28;20035;-82
2023/04/24 09:00:27;;;;;;;3.03;1.58;;;;;;;;;;5093380;28;20035;-82
2023/04/24 09:02:53;;;;;;;3.40;1.50;;;;;;;;;;5076003;28;20038;-82
2023/04/24 09:05:21;;;;;;;3.00;1.60;;;;;;;;;;5092923;28;20023;-82
2023/04/24 09:07:56;;;;;;;3.33;1.40;;;;;;;;;;5075970;28;20020;-83
2023/04/24 09:10:25;;;;;;;2.50;1.55;;;;;;;;;;5093796;28;20055;-82
2023/04/24 09:12:51;;;;;;;3.03;1.38;;;;;;;;;;5076011;28;20471;-83
2023/04/24 09:15:18;;;;;;;3.92;1.70;;;;;;;;;;5092732;28;20104;-82
2023/04/24 09:17:43;;;;;;;2.47;1.40;;;;;;;;;;5092697;28;20146;-83
2023/04/24 09:20:09;;;;;;;3.25;1.55;;;;;;;;;;5093962;28;20119;-82
2023/04/24 09:22:34;;;;;;;1.98;1.40;;;;;;;;;;5076975;28;20096;-83
2023/04/24 09:25:06;;;;;;;4.13;1.60;;;;;;;;;;5094518;28;20055;-82
2023/04/24 09:27:32;;;;;;;3.53;1.73;;;;;;;;;;5093025;28;20020;-82
2023/04/24 09:29:58;;;;;;;1.58;1.30;;;;;;;;;;5075929;28;20107;-82
2023/04/24 09:32:25;;;;;;;5.60;1.40;;;;;;;;;;5094092;28;20048;-82
2023/04/24 09:35:08;;;;;;;2.38;1.33;;;;;;;;;;5092344;28;20032;-82
2023/04/24 09:37:37;;;;;;;2.85;1.63;;;;;;;;;;5075360;28;20050;-81
2023/04/24 09:40:13;;;;;;;3.20;1.83;;;;;;;;;;5093835;28;20494;-81
2023/04/24 09:42:39;;;;;;;2.92;1.35;;;;;;;;;;5092273;28;20043;-82
2023/04/24 09:45:09;;;;;;;2.75;1.50;;;;;;;;;;5092692;28;20028;-83
2023/04/24 09:47:38;;;;;;;5.43;1.50;;;;;;;;;;5092643;28;20459;-84
2023/04/24 09:50:11;;;;;;;2.33;1.30;;;;;;;;;;5075367;28;20020;-83
2023/04/24 09:52:40;;;;;;;5.53;1.75;;;;;;;;;;5093707;28;20076;-83
2023/04/24 09:55:11;;;;;;;3.95;1.60;;;;;;;;;;5092714;28;20032;-83
2023/04/24 09:57:50;;;;;;;2.97;1.58;;;;;;;;;;5093607;28;20020;-83
2023/04/24 10:00:29;;;;;;;3.97;1.60;;;;;;;;;;5092172;28;20494;-82
2023/04/24 10:03:03;;;;;;;2.88;1.20;;;;;;;;;;5092201;28;20020;-83
2023/04/24 10:05:33;;;;;;;2.50;1.13;;;;;;;;;;5092500;28;20483;-83
2023/04/24 10:08:05;;;;;;;2.50;1.20;;;;;;;;;;5093660;28;20478;-81
2023/04/24 10:10:32;;;;;;;2.85;1.40;;;;;;;;;;5093945;28;20031;-81
2023/04/24 10:12:57;;;;;;;2.85;1.27;;;;;;;;;;5092241;28;20081;-82
2023/04/24 10:15:24;;;;;;;1.70;1.20;;;;;;;;;;5092320;28;20036;-82
2023/04/24 10:17:53;;;;;;;1.58;1.10;;;;;;;;;;5093725;28;20512;-82
2023/04/24 10:20:23;;;;;;;1.60;1.30;;;;;;;;;;5092437;28;20039;-82
2023/04/24 10:22:50;;;;;;;3.28;1.85;;;;;;;;;;5076717;28;20428;-82
2023/04/24 10:25:30;;;;;;;2.72;1.48;;;;;;;;;;5061138;28;20028;-82
2023/04/24 10:27:59;;;;;;;3.40;1.17;;;;;;;;;;5098134;28;20039;-82
2023/04/24 10:30:25;;;;;;;2.55;1.58;;;;;;;;;;5097382;28;20028;-82
2023/04/24 10:32:50;;;;;;;2.65;1.33;;;;;;;;;;5096240;28;20032;-82
2023/04/24 10:35:16;;;;;;;2.42;1.20;;;;;;;;;;5096201;28;20032;-82
2023/04/24 10:37:47;;;;;;;2.55;1.20;;;;;;;;;;5095732;28;20115;-82
2023/04/24 10:40:17;;;;;;;2.95;1.10;;;;;;;;;;5097582;28;20521;-83
2023/04/24 10:42:47;;;;;;;2.95;1.40;;;;;;;;;;5081285;28;20098;-81
2023/04/24 10:45:21;;;;;;;2.20;1.30;;;;;;;;;;5097782;28;20020;-82
2023/04/24 10:47:58;;;;;;;3.42;1.23;;;;;;;;;;5097295;28;20382;-82
2023/04/24 10:50:26;;;;;;;1.98;1.23;;;;;;;;;;5097499;28;20467;-81
2023/04/24 10:52:52;;;;;;;1.80;1.08;;;;;;;;;;5096261;28;20054;-82
2023/04/24 10:55:47;;;;;;;2.05;1.25;;;;;;;;;;5095335;28;20067;-82
2023/04/24 10:58:14;;;;;;;4.88;1.13;;;;;;;;;;5095162;28;20101;-82
2023/04/24 11:00:40;;;;;;;5.32;1.50;;;;;;;;;;5095678;28;20032;-83
2023/04/24 11:03:27;;;;;;;3.05;1.20;;;;;;;;;;5095632;28;20119;-82
2023/04/24 11:05:56;;;;;;;1.30;1.00;;;;;;;;;;5078858;28;20024;-83
2023/04/24 11:08:24;;;;;;;2.17;1.40;;;;;;;;;;5096460;28;20024;-82
2023/04/24 11:11:20;;;;;;;3.05;1.27;;;;;;;;;;5095351;28;20158;-82
2023/04/24 11:13:57;;;;;;;2.03;1.20;;;;;;;;;;5096421;28;20032;-83
2023/04/24 11:16:23;;;;;;;1.73;1.10;;;;;;;;;;5094764;28;20020;-82
2023/04/24 11:18:56;;;;;;;1.25;0.70;;;;;;;;;;5096190;28;20191;-82
2023/04/24 11:21:22;;;;;;;1.50;0.98;;;;;;;;;;5094556;28;20394;-82
2023/04/24 11:23:47;;;;;;;3.83;1.00;;;;;;;;;;5094878;28;20047;-83
2023/04/24 11:26:30;;;;;;;0.85;0.68;;;;;;;;;;5097474;28;20028;-82
2023/04/24 11:29:06;;;;;;;1.52;0.98;;;;;;;;;;5096452;28;20492;-82
2023/04/24 11:31:48;;;;;;;1.73;1.00;;;;;;;;;;5094945;28;20028;-82
2023/04/24 11:34:14;;;;;;;2.08;1.05;;;;;;;;;;5078512;28;20047;-82
2023/04/24 11:36:40;;;;;;;1.48;1.02;;;;;;;;;;5094307;28;20050;-81
2023/04/24 11:39:06;;;;;;;0.98;0.70;;;;;;;;;;5077703;28;20367;-82
2023/04/24 11:41:33;;;;;;;2.72;1.13;;;;;;;;;;5094360;28;20024;-82
2023/04/24 11:43:59;;;;;;;0.95;0.82;;;;;;;;;;5094389;28;20024;-82
2023/04/24 11:46:27;;;;;;;1.58;0.90;;;;;;;;;;5094384;28;20106;-82
2023/04/24 11:48:53;;;;;;;2.40;1.20;;;;;;;;;;5094411;28;20020;-82
2023/04/24 11:51:18;;;;;;;1.05;0.80;;;;;;;;;;5095453;28;20524;-82
2023/04/24 11:53:44;;;;;;;2.60;0.80;;;;;;;;;;5095747;28;20031;-82
2023/04/24 11:56:09;;;;;;;1.75;1.17;;;;;;;;;;5077060;28;20028;-82
2023/04/24 11:58:35;;;;;;;1.98;0.82;;;;;;;;;;5077233;28;20028;-82
2023/04/24 12:01:01;;;;;;;1.50;0.80;;;;;;;;;;5093794;28;20027;-82
2023/04/24 12:03:26;;;;;;;0.80;0.80;;;;;;;;;;5095395;28;20112;-82
2023/04/24 12:05:52;;;;;;;0.85;0.70;;;;;;;;;;5094292;28;20031;-82
2023/04/24 12:08:32;;;;;;;3.92;1.00;;;;;;;;;;5094018;28;20024;-82
2023/04/24 12:10:59;;;;;;;1.45;0.70;;;;;;;;;;5094030;28;20027;-82
2023/04/24 12:13:25;;;;;;;0.75;0.65;;;;;;;;;;5094214;28;20527;-82
2023/04/24 12:15:51;;;;;;;2.13;0.90;;;;;;;;;;5094019;28;20032;-83
2023/04/24 12:18:19;;;;;;;2.17;0.80;;;;;;;;;;5076570;28;20044;-83
2023/04/24 12:20:44;;;;;;;0.77;0.60;;;;;;;;;;5094893;28;20027;-83
2023/04/24 12:23:10;;;;;;;0.85;0.70;;;;;;;;;;5095316;28;20036;-82
2023/04/24 12:25:35;;;;;;;1.00;0.80;;;;;;;;;;5094012;28;20031;-83
2023/04/24 12:28:04;;;;;;;0.73;0.60;;;;;;;;;;5077019;28;20077;-82
2023/04/24 12:30:30;;;;;;;1.25;0.73;;;;;;;;;;5095060;28;20490;-82
2023/04/24 12:32:58;;;;;;;0.70;0.70;;;;;;;;;;5094851;28;20032;-82
2023/04/24 12:35:25;;;;;;;2.17;0.60;;;;;;;;;;5093463;28;20115;-83
2023/04/24 12:37:50;;;;;;;0.75;0.70;;;;;;;;;;5093663;28;20093;-82
2023/04/24 12:40:17;;;;;;;0.70;0.60;;;;;;;;;;5093352;28;20371;-83
2023/04/24 12:42:43;;;;;;;3.80;0.90;;;;;;;;;;5076324;28;20031;-82
2023/04/24 12:45:09;;;;;;;0.80;0.80;;;;;;;;;;5093213;28;20024;-82
2023/04/24 12:47:36;;;;;;;1.08;0.88;;;;;;;;;;5092531;28;20024;-82
2023/04/24 12:50:02;;;;;;;1.50;0.60;;;;;;;;;;5076289;28;20088;-82
2023/04/24 12:52:29;;;;;;;1.70;0.80;;;;;;;;;;5093106;28;20123;-82
2023/04/24 12:54:56;;;;;;;1.58;0.68;;;;;;;;;;5093459;28;20462;-82
2023/04/24 12:57:24;;;;;;;1.70;0.82;;;;;;;;;;5094366;28;20035;-83
2023/04/24 12:59:49;;;;;;;1.50;0.88;;;;;;;;;;5094542;28;20035;-83
2023/04/24 13:02:17;;;;;;;0.75;0.57;;;;;;;;;;5094223;28;20024;-83
2023/04/24 13:04:44;;;;;;;1.77;0.95;;;;;;;;;;5092833;28;20031;-83
2023/04/24 13:07:10;;;;;;;1.35;0.93;;;;;;;;;;5094123;28;20051;-83
2023/04/24 13:09:35;;;;;;;1.35;0.70;;;;;;;;;;5076267;28;20063;-83
2023/04/24 13:12:01;;;;;;;0.88;0.57;;;;;;;;;;5092749;28;20035;-83
2023/04/24 13:14:26;;;;;;;2.63;0.80;;;;;;;;;;5093063;28;20055;-83
2023/04/24 13:16:52;;;;;;;2.17;1.00;;;;;;;;;;5092616;28;20060;-83
2023/04/24 13:19:18;;;;;;;3.13;0.90;;;;;;;;;;5093055;28;20119;-83
2023/04/24 13:21:43;;;;;;;2.42;1.02;;;;;;;;;;5103071;28;20035;-84
2023/04/24 13:24:09;;;;;;;1.15;0.70;;;;;;;;;;5102991;28;20434;-82
2023/04/24 13:26:35;;;;;;;1.13;0.85;;;;;;;;;;5079006;28;20383;-82
2023/04/24 13:29:00;;;;;;;1.95;0.95;;;;;;;;;;5102965;28;20040;-82
2023/04/24 13:31:26;;;;;;;1.45;1.00;;;;;;;;;;5117779;28;20016;-82
2023/04/24 13:33:51;;;;;;;2.47;0.90;;;;;;;;;;5107577;28;20032;-82
2023/04/24 13:36:17;;;;;;;1.57;0.90;;;;;;;;;;5100590;28;20083;-83
2023/04/24 13:38:44;;;;;;;1.55;0.93;;;;;;;;;;5099282;28;20088;-83
2023/04/24 13:41:10;;;;;;;2.13;1.02;;;;;;;;;;5099374;28;20015;-83
2023/04/24 13:43:35;;;;;;;6.25;1.08;;;;;;;;;;5097672;28;20043;-83
2023/04/24 13:46:02;;;;;;;3.13;1.10;;;;;;;;;;5099274;28;20020;-83
2023/04/24 13:48:28;;;;;;;3.13;1.08;;;;;;;;;;5083040;28;20024;-82
2023/04/24 13:50:54;;;;;;;4.57;1.45;;;;;;;;;;5079702;28;20093;-82
2023/04/24 13:53:19;;;;;;;4.65;1.38;;;;;;;;;;5096442;28;20040;-82
2023/04/24 13:55:45;;;;;;;2.55;1.30;;;;;;;;;;5095616;28;20028;-82
2023/04/24 13:58:10;;;;;;;3.72;1.23;;;;;;;;;;5094436;28;20369;-81
2023/04/24 14:00:35;;;;;;;3.10;1.17;;;;;;;;;;5097342;28;20103;-82
2023/04/24 14:03:01;;;;;;;2.40;1.10;;;;;;;;;;5098576;28;20024;-82
2023/04/24 14:05:26;;;;;;;2.65;1.13;;;;;;;;;;5097580;28;20031;-82
2023/04/24 14:07:52;;;;;;;3.13;1.23;;;;;;;;;;5099150;28;20485;-82
2023/04/24 14:10:17;;;;;;;2.45;1.30;;;;;;;;;;5098166;28;20036;-82
2023/04/24 14:12:43;;;;;;;4.03;1.60;;;;;;;;;;5098468;28;20032;-81
2023/04/24 14:15:09;;;;;;;3.55;1.75;;;;;;;;;;5097186;28;20035;-82
2023/04/24 14:17:35;;;;;;;3.47;1.60;;;;;;;;;;5098001;28;20044;-81
2023/04/24 14:20:00;;;;;;;4.30;1.52;;;;;;;;;;5097188;28;20390;-82
2023/04/24 14:22:26;;;;;;;2.88;1.30;;;;;;;;;;5097022;28;20036;-82
2023/04/24 14:24:51;;;;;;;6.22;1.80;;;;;;;;;;5098071;28;20047;-81
2023/04/24 14:27:17;;;;;;;3.03;1.40;;;;;;;;;;5096559;28;20051;-82
2023/04/24 14:29:42;;;;;;;3.65;1.52;;;;;;;;;;5097821;28;20035;-82
2023/04/24 14:32:08;;;;;;;3.20;1.40;;;;;;;;;;5097545;28;20467;-82
2023/04/24 14:34:34;;;;;;;4.28;1.30;;;;;;;;;;5095996;28;20026;-82
2023/04/24 14:37:00;;;;;;;3.97;1.40;;;;;;;;;;5079363;28;20036;-82
2023/04/24 14:39:25;;;;;;;2.25;1.40;;;;;;;;;;5096362;28;20385;-82